createdAt,value
2018-01-29T00:00:11.127Z,91.00
2018-01-29T00:02:40.072Z,91.20
2018-01-29T00:05:09.005Z,91.20
2018-01-29T00:07:37.960Z,91.30
2018-01-29T00:10:06.174Z,91.30
2018-01-29T00:12:34.326Z,91.40
2018-01-29T00:15:02.493Z,91.10
2018-01-29T00:17:30.661Z,91.10
2018-01-29T00:19:58.839Z,91.30
2018-01-29T00:22:27.006Z,91.20
2018-01-29T00:24:55.212Z,91.20
2018-01-29T00:27:23.373Z,91.20
2018-01-29T00:29:51.546Z,91.20
2018-01-29T00:32:19.721Z,91.20
2018-01-29T00:34:47.896Z,91.20
2018-01-29T00:37:16.074Z,91.30
2018-01-29T00:39:44.235Z,91.30
2018-01-29T00:42:12.415Z,91.40
2018-01-29T00:44:40.582Z,91.50
2018-01-29T00:47:08.757Z,91.60
2018-01-29T00:49:36.930Z,91.70
2018-01-29T00:52:05.187Z,91.90
2018-01-29T00:54:33.363Z,92.30
2018-01-29T00:57:01.521Z,92.10
2018-01-29T00:59:29.682Z,92.20
2018-01-29T01:01:57.844Z,92.40
2018-01-29T01:04:26.774Z,92.50
2018-01-29T01:06:54.986Z,92.50
2018-01-29T01:09:23.173Z,92.50
2018-01-29T01:11:51.369Z,92.50
2018-01-29T01:14:20.301Z,92.40
2018-01-29T01:16:48.462Z,92.40
2018-01-29T01:19:16.656Z,92.40
2018-01-29T01:21:44.833Z,92.40
2018-01-29T01:24:13.001Z,92.40
2018-01-29T01:26:41.190Z,92.50
2018-01-29T01:29:09.374Z,92.50
2018-01-29T01:31:37.573Z,92.60
2018-01-29T01:34:06.514Z,92.70
2018-01-29T01:36:34.670Z,92.70
2018-01-29T01:39:02.838Z,92.70
2018-01-29T01:41:31.038Z,92.70
2018-01-29T01:43:59.215Z,92.80
2018-01-29T01:46:27.377Z,93.00
2018-01-29T01:48:55.551Z,93.10
2018-01-29T01:51:23.725Z,93.10
2018-01-29T01:53:51.881Z,93.10
2018-01-29T01:56:20.072Z,93.10
2018-01-29T01:58:48.253Z,93.20
2018-01-29T02:01:16.423Z,93.10
2018-01-29T02:03:44.616Z,93.10
2018-01-29T02:06:12.794Z,93.10
2018-01-29T02:08:40.962Z,93.10
2018-01-29T02:11:09.133Z,93.20
2018-01-29T02:13:37.309Z,93.30
2018-01-29T02:16:05.470Z,93.40
2018-01-29T02:18:33.667Z,93.30
2018-01-29T02:21:01.834Z,93.20
2018-01-29T02:23:30.014Z,93.10
2018-01-29T02:25:58.178Z,93.10
2018-01-29T02:28:26.346Z,93.10
2018-01-29T02:30:54.537Z,93.10
2018-01-29T02:33:22.703Z,93.10
2018-01-29T02:35:50.867Z,93.10
2018-01-29T02:38:19.026Z,93.10
2018-01-29T02:40:47.190Z,93.20
2018-01-29T02:43:15.359Z,93.20
2018-01-29T02:45:44.309Z,93.20
2018-01-29T02:48:12.501Z,93.20
2018-01-29T02:50:40.673Z,93.20
2018-01-29T02:53:08.909Z,93.30
2018-01-29T02:55:37.092Z,93.20
2018-01-29T02:58:05.273Z,93.20
2018-01-29T03:00:33.479Z,93.30
2018-01-29T03:03:01.641Z,93.30
2018-01-29T03:05:29.822Z,93.30
2018-01-29T03:07:58.010Z,93.30
2018-01-29T03:10:26.176Z,93.30
2018-01-29T03:12:54.348Z,93.40
2018-01-29T03:15:22.513Z,93.40
2018-01-29T03:17:50.673Z,93.40
2018-01-29T03:20:18.850Z,93.40
2018-01-29T03:22:47.010Z,93.50
2018-01-29T03:25:15.189Z,93.60
2018-01-29T03:27:43.351Z,93.50
2018-01-29T03:30:11.511Z,93.60
2018-01-29T03:32:39.702Z,93.50
2018-01-29T03:35:07.909Z,93.40
2018-01-29T03:37:36.072Z,93.50
2018-01-29T03:40:04.235Z,93.50
2018-01-29T03:42:32.400Z,93.50
2018-01-29T03:45:00.553Z,93.50
2018-01-29T03:47:28.718Z,93.50
2018-01-29T03:49:57.675Z,93.60
2018-01-29T03:52:25.833Z,93.50
2018-01-29T03:54:53.988Z,93.60
2018-01-29T03:57:22.177Z,93.70
2018-01-29T03:59:50.345Z,93.90
2018-01-29T04:02:18.524Z,93.90
2018-01-29T04:04:46.686Z,93.90
2018-01-29T04:07:14.860Z,93.90
2018-01-29T04:09:43.033Z,93.90
2018-01-29T04:12:11.456Z,93.90
2018-01-29T04:14:40.033Z,93.90
2018-01-29T04:17:08.240Z,94.00
2018-01-29T04:19:37.173Z,94.00
2018-01-29T04:22:05.344Z,93.90
2018-01-29T04:24:33.506Z,94.00
2018-01-29T04:27:01.684Z,94.00
2018-01-29T04:29:29.874Z,94.00
2018-01-29T04:31:58.038Z,93.80
2018-01-29T04:34:26.197Z,93.80
2018-01-29T04:36:54.365Z,93.70
2018-01-29T04:39:22.529Z,93.80
2018-01-29T04:41:51.469Z,93.70
2018-01-29T04:44:21.102Z,93.60
2018-01-29T04:46:49.285Z,93.70
2018-01-29T04:49:17.453Z,93.70
2018-01-29T04:51:45.623Z,93.70
2018-01-29T04:54:13.777Z,93.70
2018-01-29T04:56:41.956Z,93.70
2018-01-29T04:59:10.134Z,93.80
2018-01-29T05:01:38.294Z,93.90
2018-01-29T05:04:06.458Z,93.90
2018-01-29T05:06:34.630Z,93.80
2018-01-29T05:09:02.876Z,93.90
2018-01-29T05:11:31.923Z,94.40
2018-01-29T05:14:00.088Z,94.30
2018-01-29T05:16:28.287Z,94.30
2018-01-29T05:18:56.462Z,94.10
2018-01-29T05:21:24.638Z,94.00
2018-01-29T05:23:52.817Z,94.00
2018-01-29T05:26:20.981Z,93.90
2018-01-29T05:28:49.170Z,93.90
2018-01-29T05:31:17.338Z,93.90
2018-01-29T05:33:45.506Z,94.10
2018-01-29T05:39:18.329Z,94.10
2018-01-29T05:41:46.505Z,94.10
2018-01-29T05:44:14.673Z,94.20
2018-01-29T05:46:42.837Z,94.20
2018-01-29T05:49:11.049Z,94.20
2018-01-29T05:51:39.227Z,94.20
2018-01-29T05:54:07.403Z,94.20
2018-01-29T05:56:35.629Z,94.30
2018-01-29T05:59:04.830Z,94.10
2018-01-29T06:01:33.008Z,94.20
2018-01-29T06:04:01.174Z,94.10
2018-01-29T06:06:29.361Z,94.20
2018-01-29T06:08:57.533Z,94.10
2018-01-29T06:11:25.691Z,94.20
2018-01-29T06:13:53.852Z,94.30
2018-01-29T06:16:22.037Z,94.20
2018-01-29T06:18:50.254Z,94.30
2018-01-29T06:21:18.390Z,94.20
2018-01-29T06:23:46.551Z,94.10
2018-01-29T06:26:14.722Z,93.90
2018-01-29T06:28:42.920Z,93.70
2018-01-29T06:31:11.848Z,93.40
2018-01-29T06:33:40.777Z,93.60
2018-01-29T06:36:08.951Z,93.30
2018-01-29T06:38:37.108Z,93.20
2018-01-29T06:41:05.269Z,93.10
2018-01-29T06:43:34.196Z,92.90
2018-01-29T06:46:02.343Z,92.90
2018-01-29T06:48:30.500Z,92.80
2018-01-29T06:50:59.431Z,91.70
2018-01-29T06:53:27.606Z,91.70
2018-01-29T06:55:55.791Z,91.20
2018-01-29T06:58:23.993Z,91.00
2018-01-29T07:00:52.154Z,91.30
2018-01-29T07:03:20.341Z,91.60
2018-01-29T07:05:48.535Z,91.60
2018-01-29T07:08:17.475Z,91.70
2018-01-29T07:10:45.665Z,91.70
2018-01-29T07:13:13.868Z,91.90
2018-01-29T07:15:42.045Z,92.10
2018-01-29T07:18:10.217Z,92.30
2018-01-29T07:20:38.384Z,92.40
2018-01-29T07:23:06.586Z,92.50
2018-01-29T07:25:35.524Z,92.50
2018-01-29T07:28:03.701Z,92.50
2018-01-29T07:30:31.892Z,92.40
2018-01-29T07:33:00.067Z,92.30
2018-01-29T07:35:28.242Z,92.30
2018-01-29T07:37:56.412Z,92.30
2018-01-29T07:40:24.640Z,92.30
2018-01-29T07:42:52.822Z,92.40
2018-01-29T07:45:21.762Z,92.10
2018-01-29T07:47:49.955Z,92.10
2018-01-29T07:50:18.138Z,92.30
2018-01-29T07:52:47.086Z,92.20
2018-01-29T07:55:15.262Z,92.10
2018-01-29T07:57:43.433Z,92.10
2018-01-29T08:00:11.606Z,91.90
2018-01-29T08:02:39.793Z,91.90
2018-01-29T08:05:07.976Z,91.80
2018-01-29T08:07:36.175Z,91.80
2018-01-29T08:10:05.143Z,91.80
2018-01-29T08:12:33.333Z,91.70
2018-01-29T08:15:01.768Z,91.70
2018-01-29T08:17:29.969Z,91.60
2018-01-29T08:19:58.145Z,91.50
2018-01-29T08:22:26.330Z,91.40
2018-01-29T08:24:54.493Z,91.20
2018-01-29T08:27:22.676Z,91.30
2018-01-29T08:29:50.854Z,91.10
2018-01-29T08:32:19.050Z,91.10
2018-01-29T08:34:47.989Z,91.10
2018-01-29T08:37:16.178Z,91.00
2018-01-29T08:39:44.387Z,91.10
2018-01-29T08:42:13.343Z,91.00
2018-01-29T08:44:41.537Z,91.00
2018-01-29T08:47:09.728Z,90.80
2018-01-29T08:49:38.703Z,90.60
2018-01-29T08:52:06.871Z,90.60
2018-01-29T08:54:35.046Z,90.50
2018-01-29T08:57:03.241Z,90.30
2018-01-29T08:59:31.419Z,90.30
2018-01-29T09:01:59.598Z,89.50
2018-01-29T09:04:28.552Z,88.60
2018-01-29T09:06:56.732Z,88.50
2018-01-29T09:09:24.918Z,88.50
2018-01-29T09:11:53.112Z,88.30
2018-01-29T09:14:22.053Z,86.90
2018-01-29T09:16:50.230Z,86.90
2018-01-29T09:19:18.478Z,87.10
2018-01-29T09:21:46.660Z,86.90
2018-01-29T09:24:14.831Z,85.40
2018-01-29T09:26:43.010Z,83.80
2018-01-29T09:29:11.241Z,83.30
2018-01-29T09:31:39.440Z,82.70
2018-01-29T09:34:08.386Z,81.50
2018-01-29T09:36:36.559Z,81.40
2018-01-29T09:39:04.851Z,80.30
2018-01-29T09:41:33.030Z,79.50
2018-01-29T09:44:01.214Z,78.80
2018-01-29T09:46:29.390Z,77.70
2018-01-29T09:48:57.569Z,77.10
2018-01-29T09:51:25.746Z,76.40
2018-01-29T09:53:53.915Z,75.50
2018-01-29T09:56:22.090Z,74.10
2018-01-29T09:58:50.254Z,73.50
2018-01-29T10:01:18.442Z,72.70
2018-01-29T10:03:46.625Z,72.00
2018-01-29T10:06:15.552Z,70.40
2018-01-29T10:08:43.752Z,70.30
2018-01-29T10:11:11.943Z,70.00
2018-01-29T10:13:40.138Z,70.00
2018-01-29T10:16:09.084Z,67.60
2018-01-29T10:18:37.277Z,67.50
2018-01-29T10:21:05.445Z,65.20
2018-01-29T10:23:33.612Z,64.40
2018-01-29T10:26:01.798Z,64.20
2018-01-29T10:28:29.985Z,63.80
2018-01-29T10:30:58.154Z,62.90
2018-01-29T10:33:26.402Z,61.30
2018-01-29T10:35:54.597Z,60.30
2018-01-29T10:38:22.766Z,58.60
2018-01-29T10:40:50.937Z,57.80
2018-01-29T10:43:19.126Z,56.70
2018-01-29T10:45:47.320Z,57.80
2018-01-29T10:48:15.493Z,55.20
2018-01-29T10:50:43.676Z,54.60
2018-01-29T10:53:12.664Z,51.80
2018-01-29T10:55:40.833Z,51.80
2018-01-29T10:58:13.061Z,49.60
2018-01-29T11:00:48.851Z,48.80
2018-01-29T11:03:18.114Z,45.70
2018-01-29T11:05:46.290Z,45.60
2018-01-29T11:08:14.983Z,45.30
2018-01-29T11:10:47.866Z,40.30
2018-01-29T11:13:16.236Z,40.20
2018-01-29T11:15:44.399Z,34.80
2018-01-29T11:18:12.563Z,30.00
2018-01-29T11:20:40.980Z,26.00
2018-01-29T11:23:12.838Z,24.10
2018-01-29T11:25:41.009Z,21.50
2018-01-29T11:28:09.177Z,20.20
2018-01-29T11:30:40.054Z,19.80
2018-01-29T11:33:09.593Z,18.20
2018-01-29T11:35:38.564Z,17.50
2018-01-29T11:38:07.503Z,17.40
2018-01-29T11:40:36.043Z,16.60
2018-01-29T11:43:04.989Z,16.10
2018-01-29T11:45:33.179Z,16.10
2018-01-29T11:48:01.345Z,15.90
2018-01-29T11:50:29.541Z,15.30
2018-01-29T11:52:57.726Z,15.20
2018-01-29T11:55:26.838Z,15.30
2018-01-29T11:57:55.771Z,15.10
2018-01-29T12:00:23.966Z,15.00
2018-01-29T12:02:52.161Z,14.70
2018-01-29T12:05:20.343Z,14.20
2018-01-29T12:07:48.525Z,14.10
2018-01-29T12:10:17.474Z,13.60
2018-01-29T12:12:45.687Z,13.60
2018-01-29T12:15:13.872Z,13.90
2018-01-29T12:17:42.884Z,12.80
2018-01-29T12:20:11.058Z,12.80
2018-01-29T12:22:39.275Z,12.60
2018-01-29T12:25:07.437Z,12.40
2018-01-29T12:27:35.612Z,12.30
2018-01-29T12:30:03.815Z,12.30
2018-01-29T12:32:33.115Z,11.80
2018-01-29T12:35:01.298Z,11.50
2018-01-29T12:37:29.472Z,11.80
2018-01-29T12:39:57.657Z,11.40
2018-01-29T12:42:26.622Z,11.40
2018-01-29T12:44:54.785Z,11.30
2018-01-29T12:47:22.957Z,11.30
2018-01-29T12:49:51.125Z,11.10
2018-01-29T12:52:19.310Z,11.00
2018-01-29T12:54:47.479Z,10.90
2018-01-29T12:57:15.861Z,11.10
2018-01-29T12:59:44.059Z,10.70
2018-01-29T13:02:12.226Z,10.50
2018-01-29T13:04:40.410Z,10.70
2018-01-29T13:07:08.580Z,10.50
2018-01-29T13:09:38.253Z,10.00
2018-01-29T13:12:06.426Z,10.00
2018-01-29T13:14:34.596Z,10.20
2018-01-29T13:17:02.793Z,10.40
2018-01-29T13:19:30.990Z,10.10
2018-01-29T13:21:59.166Z,10.70
2018-01-29T13:24:27.354Z,10.30
2018-01-29T13:26:55.524Z,10.70
2018-01-29T13:29:24.473Z,10.90
2018-01-29T13:31:52.651Z,10.70
2018-01-29T13:34:20.835Z,10.60
2018-01-29T13:36:49.017Z,11.00
2018-01-29T13:39:17.174Z,11.80
2018-01-29T13:41:45.338Z,12.10
2018-01-29T13:44:13.522Z,12.10
2018-01-29T13:46:41.729Z,13.50
2018-01-29T13:49:09.966Z,14.80
2018-01-29T13:51:38.142Z,15.90
2018-01-29T13:54:06.316Z,16.60
2018-01-29T13:56:34.487Z,17.20
2018-01-29T13:59:02.716Z,17.70
2018-01-29T14:01:30.890Z,17.50
2018-01-29T14:03:59.067Z,17.80
2018-01-29T14:06:28.013Z,17.20
2018-01-29T14:08:56.191Z,17.20
2018-01-29T14:11:24.398Z,15.70
2018-01-29T14:13:52.584Z,14.40
2018-01-29T14:16:21.522Z,13.10
2018-01-29T14:18:49.694Z,13.10
2018-01-29T14:21:17.908Z,12.80
2018-01-29T14:23:46.073Z,12.30
2018-01-29T14:26:14.248Z,12.10
2018-01-29T14:28:42.438Z,11.90
2018-01-29T14:31:10.601Z,11.90
2018-01-29T14:33:38.787Z,11.80
2018-01-29T14:36:07.001Z,11.50
2018-01-29T14:38:35.173Z,11.60
2018-01-29T14:41:03.377Z,11.70
2018-01-29T14:43:31.554Z,11.90
2018-01-29T14:45:59.735Z,12.00
2018-01-29T14:48:27.903Z,12.40
2018-01-29T14:50:56.082Z,12.90
2018-01-29T14:53:24.242Z,13.20
2018-01-29T14:55:52.404Z,13.60
2018-01-29T14:58:20.613Z,14.20
2018-01-29T15:00:48.791Z,14.30
2018-01-29T15:03:16.976Z,14.60
2018-01-29T15:05:45.162Z,14.70
2018-01-29T15:08:13.335Z,14.80
2018-01-29T15:10:41.508Z,15.10
2018-01-29T15:13:09.685Z,15.60
2018-01-29T15:15:37.882Z,16.10
2018-01-29T15:18:06.822Z,17.10
2018-01-29T15:20:35.769Z,17.80
2018-01-29T15:23:04.710Z,18.30
2018-01-29T15:25:32.875Z,18.20
2018-01-29T15:28:01.035Z,19.10
2018-01-29T15:30:29.221Z,20.50
2018-01-29T15:32:57.394Z,22.10
2018-01-29T15:35:25.589Z,23.30
2018-01-29T15:37:53.759Z,24.20
2018-01-29T15:40:21.926Z,24.90
2018-01-29T15:42:50.130Z,25.40
2018-01-29T15:45:18.303Z,26.70
2018-01-29T15:47:46.482Z,28.30
2018-01-29T15:50:14.654Z,30.40
2018-01-29T15:52:42.848Z,32.40
2018-01-29T15:55:11.790Z,36.30
2018-01-29T15:57:39.958Z,36.10
2018-01-29T16:00:08.262Z,37.80
2018-01-29T16:02:36.605Z,39.60
2018-01-29T16:05:04.774Z,40.90
2018-01-29T16:07:32.954Z,42.40
2018-01-29T16:10:01.133Z,42.60
2018-01-29T16:12:29.312Z,43.60
2018-01-29T16:14:57.512Z,44.40
2018-01-29T16:17:25.687Z,45.20
2018-01-29T16:19:54.189Z,45.40
2018-01-29T16:22:23.230Z,47.20
2018-01-29T16:24:51.508Z,47.00
2018-01-29T16:27:19.674Z,47.80
2018-01-29T16:29:47.902Z,48.50
2018-01-29T16:32:16.065Z,49.00
2018-01-29T16:34:44.252Z,49.20
2018-01-29T16:37:12.551Z,49.60
2018-01-29T16:39:41.530Z,50.80
2018-01-29T16:42:09.701Z,50.70
2018-01-29T16:44:37.889Z,51.10
2018-01-29T16:47:06.854Z,52.20
2018-01-29T16:49:35.036Z,52.10
2018-01-29T16:52:03.275Z,52.80
2018-01-29T16:54:32.575Z,53.90
2018-01-29T16:57:01.817Z,54.40
2018-01-29T16:59:29.987Z,54.30
2018-01-29T17:01:58.221Z,54.60
2018-01-29T17:04:26.418Z,55.10
2018-01-29T17:06:54.588Z,55.40
2018-01-29T17:09:22.789Z,55.50
2018-01-29T17:11:50.966Z,56.20
2018-01-29T17:14:19.137Z,56.50
2018-01-29T17:16:47.326Z,57.10
2018-01-29T17:19:16.274Z,58.00
2018-01-29T17:21:44.474Z,57.90
2018-01-29T17:24:12.734Z,58.20
2018-01-29T17:26:40.941Z,58.70
2018-01-29T17:29:09.897Z,59.00
2018-01-29T17:31:38.066Z,58.90
2018-01-29T17:34:06.237Z,59.30
2018-01-29T17:36:34.410Z,59.80
2018-01-29T17:39:02.639Z,59.90
2018-01-29T17:41:31.579Z,60.50
2018-01-29T17:43:59.852Z,60.40
2018-01-29T17:46:28.028Z,60.80
2018-01-29T17:48:56.232Z,62.20
2018-01-29T17:51:24.402Z,63.00
2018-01-29T17:53:52.602Z,62.90
2018-01-29T17:56:21.549Z,64.30
2018-01-29T17:58:49.722Z,64.20
2018-01-29T18:01:17.882Z,64.60
2018-01-29T18:03:46.074Z,65.10
2018-01-29T18:06:14.246Z,65.40
2018-01-29T18:08:42.414Z,65.60
2018-01-29T18:11:10.598Z,65.70
2018-01-29T18:13:38.769Z,66.00
2018-01-29T18:16:06.955Z,66.00
2018-01-29T18:18:35.206Z,65.80
2018-01-29T18:21:03.444Z,66.60
2018-01-29T18:23:32.397Z,65.40
2018-01-29T18:26:00.566Z,65.30
2018-01-29T18:28:28.782Z,65.20
2018-01-29T18:30:56.957Z,65.10
2018-01-29T18:33:25.183Z,65.50
2018-01-29T18:35:53.354Z,65.20
2018-01-29T18:38:21.523Z,65.10
2018-01-29T18:40:49.721Z,64.90
2018-01-29T18:43:17.916Z,65.00
2018-01-29T18:45:46.097Z,65.00
2018-01-29T18:48:14.274Z,65.30
2018-01-29T18:50:42.459Z,65.20
2018-01-29T18:53:11.391Z,65.30
2018-01-29T18:55:39.615Z,65.90
2018-01-29T18:58:07.831Z,65.20
2018-01-29T19:00:36.005Z,64.90
2018-01-29T19:03:04.166Z,64.80
2018-01-29T19:05:33.130Z,64.70
2018-01-29T19:08:01.316Z,64.60
2018-01-29T19:10:30.270Z,64.20
2018-01-29T19:12:58.429Z,64.10
2018-01-29T19:15:26.636Z,64.30
2018-01-29T19:17:54.820Z,64.70
2018-01-29T19:20:23.010Z,65.20
2018-01-29T19:22:52.016Z,65.60
2018-01-29T19:25:20.946Z,65.00
2018-01-29T19:27:49.306Z,65.00
2018-01-29T19:30:17.503Z,65.00
2018-01-29T19:32:45.702Z,65.30
2018-01-29T19:35:13.887Z,66.10
2018-01-29T19:37:42.060Z,66.20
2018-01-29T19:40:10.237Z,65.20
2018-01-29T19:42:38.406Z,65.10
2018-01-29T19:45:06.576Z,65.10
2018-01-29T19:47:34.744Z,64.90
2018-01-29T19:50:02.914Z,65.00
2018-01-29T19:52:31.078Z,65.60
2018-01-29T19:54:59.254Z,65.50
2018-01-29T19:57:27.430Z,65.90
2018-01-29T19:59:55.594Z,65.80
2018-01-29T20:02:23.763Z,65.90
2018-01-29T20:04:51.964Z,66.00
2018-01-29T20:07:20.132Z,66.00
2018-01-29T20:09:48.309Z,65.60
2018-01-29T20:12:16.505Z,65.80
2018-01-29T20:14:44.732Z,65.90
2018-01-29T20:17:12.910Z,66.30
2018-01-29T20:19:41.076Z,66.20
2018-01-29T20:22:09.268Z,66.20
2018-01-29T20:24:37.458Z,66.10
2018-01-29T20:27:05.637Z,65.90
2018-01-29T20:29:33.837Z,65.80
2018-01-29T20:32:02.015Z,66.20
2018-01-29T20:34:31.012Z,66.80
2018-01-29T20:36:59.971Z,66.90
2018-01-29T20:39:28.157Z,66.80
2018-01-29T20:41:56.439Z,67.60
2018-01-29T20:44:24.658Z,68.30
2018-01-29T20:46:52.858Z,68.50
2018-01-29T20:49:21.028Z,68.90
2018-01-29T20:51:49.205Z,69.30
2018-01-29T20:54:17.426Z,69.80
2018-01-29T20:56:45.637Z,69.70
2018-01-29T20:59:13.821Z,70.00
2018-01-29T21:01:42.026Z,70.20
2018-01-29T21:04:10.223Z,70.20
2018-01-29T21:06:38.405Z,70.00
2018-01-29T21:09:07.374Z,70.30
2018-01-29T21:11:35.601Z,70.30
2018-01-29T21:14:03.777Z,70.90
2018-01-29T21:16:31.941Z,69.90
2018-01-29T21:19:00.119Z,70.00
2018-01-29T21:21:29.118Z,69.40
2018-01-29T21:23:57.340Z,69.10
2018-01-29T21:26:26.313Z,68.30
2018-01-29T21:28:54.532Z,68.40
2018-01-29T21:31:22.748Z,68.90
2018-01-29T21:33:50.949Z,69.80
2018-01-29T21:36:19.133Z,67.90
2018-01-29T21:38:47.316Z,67.70
2018-01-29T21:41:15.512Z,68.00
2018-01-29T21:43:44.459Z,67.70
2018-01-29T21:46:12.730Z,67.60
2018-01-29T21:48:40.907Z,67.60
2018-01-29T21:51:09.129Z,67.30
2018-01-29T21:53:38.099Z,67.40
2018-01-29T21:56:06.294Z,67.20
2018-01-29T21:58:35.249Z,66.70
2018-01-29T22:01:03.444Z,66.70
2018-01-29T22:03:31.616Z,66.90
2018-01-29T22:05:59.790Z,66.70
2018-01-29T22:08:27.974Z,66.90
2018-01-29T22:10:56.212Z,66.50
2018-01-29T22:13:24.416Z,66.80
2018-01-29T22:15:52.660Z,66.70
2018-01-29T22:18:21.593Z,67.20
2018-01-29T22:20:49.805Z,67.20
2018-01-29T22:23:18.024Z,67.20
2018-01-29T22:25:46.222Z,67.70
2018-01-29T22:28:15.218Z,65.50
2018-01-29T22:30:43.405Z,65.40
2018-01-29T22:33:12.420Z,64.80
2018-01-29T22:35:40.652Z,64.70
2018-01-29T22:38:08.862Z,64.30
2018-01-29T22:40:37.800Z,63.90
2018-01-29T22:43:06.041Z,63.70
2018-01-29T22:45:34.235Z,63.50
2018-01-29T22:48:02.421Z,63.30
2018-01-29T22:50:30.612Z,63.30
2018-01-29T22:52:58.812Z,63.10
2018-01-29T22:55:27.009Z,63.50
2018-01-29T22:57:55.979Z,63.30
2018-01-29T23:00:24.148Z,63.30
2018-01-29T23:02:52.416Z,63.00
